Flight Track Log - Related Links

Times and Time Zones

All times are in EDT time to prevent confusion due to time zone crossing. See the SLQ340 flight status page for this flight to view local times or setup timezone preferences in your user account.

Time Position Orientation Groundspeed Altitude Reporting Facility
EDT Latitude Longitude Course Direction KTS MPH feet Rate Location/Type
Tue 07:44:43 PM 46.7667 -71.4167 229° Southwest 130 150 1,900  Level Montreal Center
Tue 07:45:43 PM 46.7667 -71.4833 270° West 140 161 3,900 1,950 Climbing Montreal Center
Tue 07:46:43 PM 46.7333 -71.4833 180° South 150 173 5,800 1,900 Climbing Montreal Center
Tue 07:47:43 PM 46.6833 -71.5167 205° Southwest 160 184 7,700 1,850 Climbing Montreal Center
Tue 07:48:43 PM 46.6667 -71.5500 234° Southwest 160 184 9,500 1,800 Climbing Montreal Center
Tue 07:49:00 PM 46.5270 -71.7627 234° Southwest  Level FlightAware Approximate
Tue 07:49:43 PM 46.6167 -71.5667 193° South 150 173 11,300  Level Montreal Center
Tue 07:50:00 PM 46.4900 -71.8333 229° Southwest  Level FlightAware Approximate
Tue 07:50:43 PM 46.6000 -71.6167 244° Southwest 160 184 12,800  Level Montreal Center
Tue 07:51:43 PM 46.5667 -71.6667 226° Southwest 160 184 14,100 650 Climbing Montreal Center
Tue 07:52:43 PM 46.5333 -71.7500 240° Southwest 170 196 14,100  Level Montreal Center
Tue 07:53:43 PM 46.5000 -71.8000 226° Southwest 170 196 14,100  Level Montreal Center
Tue 07:54:43 PM 46.4667 -71.8500 226° Southwest 220 253 14,100  Level Montreal Center
Tue 07:55:43 PM 46.4167 -71.9333 229° Southwest 230 265 14,100  Level Montreal Center
Tue 07:56:43 PM 46.3833 -72.0000 234° Southwest 240 276 14,100  Level Montreal Center
Tue 07:57:43 PM 46.3500 -72.0833 240° Southwest 230 265 14,100  Level Montreal Center
Tue 07:58:43 PM 46.3167 -72.1500 234° Southwest 240 276 14,100  Level Montreal Center
Tue 07:59:43 PM 46.2667 -72.2333 229° Southwest 240 276 14,100  Level Montreal Center
Tue 08:00:43 PM 46.2167 -72.3000 223° Southwest 240 276 14,100  Level Montreal Center
Tue 08:01:43 PM 46.1833 -72.3833 240° Southwest 240 276 14,100  Level Montreal Center
Tue 08:02:43 PM 46.1333 -72.4500 223° Southwest 240 276 14,100 -100 Level Montreal Center
Tue 08:03:43 PM 46.0833 -72.5333 229° Southwest 240 276 13,900 -550 Descending Montreal Center
Tue 08:04:43 PM 46.0500 -72.6167 240° Southwest 260 299 13,000 -1,000 Descending Montreal Center
Tue 08:05:43 PM 46.0000 -72.7167 234° Southwest 270 311 11,900 -950 Descending Montreal Center
Tue 08:06:43 PM 45.9667 -72.7833 234° Southwest 270 311 11,100 -1,050 Descending Montreal Center
Tue 08:07:43 PM 45.9000 -72.8667 221° Southwest 270 311 9,800 -1,100 Descending Montreal Center
Tue 08:08:43 PM 45.8833 -72.9500 254° West 270 311 8,900 -1,000 Descending Montreal Center
Tue 08:09:43 PM 45.8667 -73.0833 260° West 260 299 7,800 -1,000 Descending Montreal Center
Tue 08:10:43 PM 45.8500 -73.1833 257° West 270 311 6,900 -700 Descending Montreal Center
Tue 08:11:43 PM 45.8500 -73.2667 270° West 260 299 6,400 -450 Descending Montreal Center
Tue 08:12:43 PM 45.8500 -73.3667 270° West 250 288 6,000 -500 Descending Montreal Center
Tue 08:13:43 PM 45.8333 -73.4833 258° West 250 288 5,400 -650 Descending Montreal Center
Tue 08:14:43 PM 45.8167 -73.5833 257° West 260 299 4,700 -655 Descending Montreal Center
Tue 08:15:42 PM 45.8167 -73.6833 270° West 240 276 4,100 -504 Descending Montreal Center
Tue 08:16:42 PM 45.8000 -73.7500 250° West 220 253 3,700 -650 Descending Montreal Center
Tue 08:17:42 PM 45.7833 -73.8333 254° West 200 230 2,800 -850 Descending Montreal Center
Tue 08:18:42 PM 45.7500 -73.8833 226° Southwest 160 184 2,000 -750 Descending Montreal Center
Tue 08:19:42 PM 45.7167 -73.9333 226° Southwest 130 150 1,300 -650 Descending Montreal Center
Tue 08:20:42 PM 45.6833 -73.9500 199° South 130 150 700 -500 Descending Montreal Center
Tue 08:21:42 PM 45.6833 -74.0000 270° West 100 115 300 -400 Descending Montreal Center

Login

Don't have an account? Register now (free) for customized features, flight alerts, and more!